Terminal Aerodrome Forecast
Issued by NWS Bismarck, ND

Home | Current Version | Previous Version | Text Only | Print | Product List | Glossary Off
Versions: 1 2 3 4 5 6 7 8 9 10 11 12 13 14 15 16 17

000
FTUS43 KBIS 111700
TAFISN
TAF
KISN 111731Z 1118/1218 34012KT P6SM SCT110
     FM120200 03005KT P6SM SCT090 SCT100
     FM121200 21005KT P6SM SCT090
     FM121700 28009KT P6SM SCT070=

USA.gov is the U.S. government's official web portal to all federal, state and local government web resources and services.